D25

Manitowish Waters Airport

Manitowish Waters, Wisconsin, USA
METAR KD25 212255Z AUTO 36006KT 10SM OVC012 18/18 A3006 RMK AO2 T01800176
Observed Flight Rules
Jul-21 @ 22:55 UTC (12 minutes ago) Marginal Visual Flight Rules
Wind Visibility Clouds
360° at 6 knots 10 miles
  • Overcast at 1,200' AGL
Temperatures Readings
Current 18°C / 64°F
Dewpoint 18°C / 64°F
Humidity 100%
Altimeter 30.06" Hg
Pressure 1018 hPa
Elevation 491
METAR KD25 212255Z AUTO 36006KT 10SM OVC012 18/18 A3006 RMK AO2 T01800176
Observed Flight Rules
Jul-21 @ 22:55 UTC
(12 minutes ago)
MVFR
Wind Visibility
360° at 6 knots 10 miles
Clouds
  • Overcast at 1,200' AGL
Temperature Dewpoint
18°C / 64°F 18°C / 64°F
Humidity Altimeter Pressure
100% 30.06" Hg 1018 hPa